sensor_id;sensor_type;location;lat;lon;timestamp;temperature;humidity
27384;DHT22;14851;51.166;4.760;2022-12-18T00:01:29;-5.10;99.90
27384;DHT22;14851;51.166;4.760;2022-12-18T00:03:57;-5.10;99.90
27384;DHT22;14851;51.166;4.760;2022-12-18T00:06:25;-5.20;99.90
27384;DHT22;14851;51.166;4.760;2022-12-18T00:08:51;-5.20;99.90
27384;DHT22;14851;51.166;4.760;2022-12-18T00:11:19;-5.20;99.90
27384;DHT22;14851;51.166;4.760;2022-12-18T00:13:46;-5.20;99.90
27384;DHT22;14851;51.166;4.760;2022-12-18T00:16:15;-5.20;99.90
27384;DHT22;14851;51.166;4.760;2022-12-18T00:18:42;-5.20;99.90
27384;DHT22;14851;51.166;4.760;2022-12-18T00:21:10;-5.20;99.90
27384;DHT22;14851;51.166;4.760;2022-12-18T00:23:37;-5.20;99.90
27384;DHT22;14851;51.166;4.760;2022-12-18T00:26:07;-5.20;99.90
27384;DHT22;14851;51.166;4.760;2022-12-18T00:28:34;-5.20;99.90
27384;DHT22;14851;51.166;4.760;2022-12-18T00:31:05;-5.20;99.90
27384;DHT22;14851;51.166;4.760;2022-12-18T00:33:32;-5.20;99.90
27384;DHT22;14851;51.166;4.760;2022-12-18T00:36:07;-5.30;99.90
27384;DHT22;14851;51.166;4.760;2022-12-18T00:38:35;-5.30;99.90
27384;DHT22;14851;51.166;4.760;2022-12-18T00:41:02;-5.30;99.90
27384;DHT22;14851;51.166;4.760;2022-12-18T00:43:28;-5.30;99.90
27384;DHT22;14851;51.166;4.760;2022-12-18T00:45:54;-5.40;99.90
27384;DHT22;14851;51.166;4.760;2022-12-18T00:48:22;-5.40;99.90
27384;DHT22;14851;51.166;4.760;2022-12-18T00:50:50;-5.50;99.90
27384;DHT22;14851;51.166;4.760;2022-12-18T00:53:16;-5.50;99.90
27384;DHT22;14851;51.166;4.760;2022-12-18T00:55:42;-5.50;99.90
27384;DHT22;14851;51.166;4.760;2022-12-18T00:58:09;-5.50;99.90
27384;DHT22;14851;51.166;4.760;2022-12-18T01:00:36;-5.50;99.90
27384;DHT22;14851;51.166;4.760;2022-12-18T01:03:02;-5.50;99.90
27384;DHT22;14851;51.166;4.760;2022-12-18T01:05:33;-5.50;99.90
27384;DHT22;14851;51.166;4.760;2022-12-18T01:08:00;-5.50;99.90
27384;DHT22;14851;51.166;4.760;2022-12-18T01:10:26;-5.50;99.90
27384;DHT22;14851;51.166;4.760;2022-12-18T01:12:52;-5.60;99.90
27384;DHT22;14851;51.166;4.760;2022-12-18T01:15:19;-5.60;99.90
27384;DHT22;14851;51.166;4.760;2022-12-18T01:17:45;-5.60;99.90
27384;DHT22;14851;51.166;4.760;2022-12-18T01:20:12;-5.60;99.90
27384;DHT22;14851;51.166;4.760;2022-12-18T01:22:38;-5.60;99.90
27384;DHT22;14851;51.166;4.760;2022-12-18T01:25:07;-5.60;99.90
27384;DHT22;14851;51.166;4.760;2022-12-18T01:27:34;-5.70;99.90
27384;DHT22;14851;51.166;4.760;2022-12-18T01:30:00;-5.70;99.90
27384;DHT22;14851;51.166;4.760;2022-12-18T01:32:30;-5.70;99.90
27384;DHT22;14851;51.166;4.760;2022-12-18T01:34:58;-5.70;99.90
27384;DHT22;14851;51.166;4.760;2022-12-18T01:37:26;-5.70;99.90
27384;DHT22;14851;51.166;4.760;2022-12-18T01:39:53;-5.70;99.90
27384;DHT22;14851;51.166;4.760;2022-12-18T01:42:21;-5.70;99.90
27384;DHT22;14851;51.166;4.760;2022-12-18T01:50:18;-5.80;99.90
27384;DHT22;14851;51.166;4.760;2022-12-18T01:52:58;-5.80;99.90
27384;DHT22;14851;51.166;4.760;2022-12-18T01:55:28;-5.80;99.90
27384;DHT22;14851;51.166;4.760;2022-12-18T01:57:57;-5.90;99.90
27384;DHT22;14851;51.166;4.760;2022-12-18T02:00:25;-5.90;99.90
27384;DHT22;14851;51.166;4.760;2022-12-18T02:02:56;-5.90;99.90
27384;DHT22;14851;51.166;4.760;2022-12-18T02:05:50;-5.90;99.90
27384;DHT22;14851;51.166;4.760;2022-12-18T02:08:31;-5.90;99.90
27384;DHT22;14851;51.166;4.760;2022-12-18T02:11:18;-5.90;99.90
27384;DHT22;14851;51.166;4.760;2022-12-18T02:16:56;-5.90;99.90
27384;DHT22;14851;51.166;4.760;2022-12-18T02:27:50;-6.00;99.90
27384;DHT22;14851;51.166;4.760;2022-12-18T02:30:22;-6.00;99.90
27384;DHT22;14851;51.166;4.760;2022-12-18T02:32:52;-6.00;99.90
27384;DHT22;14851;51.166;4.760;2022-12-18T02:35:27;-6.00;99.90
27384;DHT22;14851;51.166;4.760;2022-12-18T02:38:02;-6.10;99.90
27384;DHT22;14851;51.166;4.760;2022-12-18T02:40:32;-6.10;99.90
27384;DHT22;14851;51.166;4.760;2022-12-18T02:43:07;-6.10;99.90
27384;DHT22;14851;51.166;4.760;2022-12-18T02:45:34;-6.10;99.90
27384;DHT22;14851;51.166;4.760;2022-12-18T02:48:01;-6.20;99.90
27384;DHT22;14851;51.166;4.760;2022-12-18T02:50:42;-6.20;99.90
27384;DHT22;14851;51.166;4.760;2022-12-18T02:53:20;-6.20;99.90
27384;DHT22;14851;51.166;4.760;2022-12-18T02:56:23;-6.20;99.90
27384;DHT22;14851;51.166;4.760;2022-12-18T02:58:55;-6.20;99.90
27384;DHT22;14851;51.166;4.760;2022-12-18T03:01:37;-6.20;99.90
27384;DHT22;14851;51.166;4.760;2022-12-18T03:04:09;-6.20;99.90
27384;DHT22;14851;51.166;4.760;2022-12-18T03:06:41;-6.30;99.90
27384;DHT22;14851;51.166;4.760;2022-12-18T03:09:17;-6.30;99.90
27384;DHT22;14851;51.166;4.760;2022-12-18T03:11:52;-6.20;99.90
27384;DHT22;14851;51.166;4.760;2022-12-18T03:14:42;-6.20;99.90
27384;DHT22;14851;51.166;4.760;2022-12-18T03:17:14;-6.20;99.90
27384;DHT22;14851;51.166;4.760;2022-12-18T03:19:46;-6.20;99.90
27384;DHT22;14851;51.166;4.760;2022-12-18T03:22:18;-6.20;99.90
27384;DHT22;14851;51.166;4.760;2022-12-18T03:24:51;-6.30;99.90
27384;DHT22;14851;51.166;4.760;2022-12-18T03:27:20;-6.30;99.90
27384;DHT22;14851;51.166;4.760;2022-12-18T03:29:57;-6.30;99.90
27384;DHT22;14851;51.166;4.760;2022-12-18T03:33:24;-6.30;99.90
27384;DHT22;14851;51.166;4.760;2022-12-18T03:35:34;-6.40;99.90
27384;DHT22;14851;51.166;4.760;2022-12-18T03:38:04;-6.40;99.90
27384;DHT22;14851;51.166;4.760;2022-12-18T03:41:02;-6.40;99.90
27384;DHT22;14851;51.166;4.760;2022-12-18T03:49:50;-6.40;99.90
27384;DHT22;14851;51.166;4.760;2022-12-18T03:55:01;-6.50;99.90
27384;DHT22;14851;51.166;4.760;2022-12-18T03:57:33;-6.50;99.90
27384;DHT22;14851;51.166;4.760;2022-12-18T04:00:12;-6.50;99.90
27384;DHT22;14851;51.166;4.760;2022-12-18T04:02:55;-6.50;99.90
27384;DHT22;14851;51.166;4.760;2022-12-18T04:05:29;-6.60;99.90
27384;DHT22;14851;51.166;4.760;2022-12-18T04:07:57;-6.50;99.90
27384;DHT22;14851;51.166;4.760;2022-12-18T04:10:26;-6.50;99.90
27384;DHT22;14851;51.166;4.760;2022-12-18T04:12:58;-6.50;99.90
27384;DHT22;14851;51.166;4.760;2022-12-18T04:15:27;-6.60;99.90
27384;DHT22;14851;51.166;4.760;2022-12-18T04:17:58;-6.60;99.90
27384;DHT22;14851;51.166;4.760;2022-12-18T04:20:30;-6.60;99.90
27384;DHT22;14851;51.166;4.760;2022-12-18T04:22:57;-6.60;99.90
27384;DHT22;14851;51.166;4.760;2022-12-18T04:25:26;-6.60;99.90
27384;DHT22;14851;51.166;4.760;2022-12-18T04:28:06;-6.60;99.90
27384;DHT22;14851;51.166;4.760;2022-12-18T04:30:33;-6.70;99.90
27384;DHT22;14851;51.166;4.760;2022-12-18T04:32:59;-6.70;99.90
27384;DHT22;14851;51.166;4.760;2022-12-18T04:35:26;-6.70;99.90
27384;DHT22;14851;51.166;4.760;2022-12-18T04:37:54;-6.80;99.90
27384;DHT22;14851;51.166;4.760;2022-12-18T04:40:20;-6.80;99.90
27384;DHT22;14851;51.166;4.760;2022-12-18T04:42:48;-6.80;99.90
27384;DHT22;14851;51.166;4.760;2022-12-18T04:45:14;-6.80;99.90
27384;DHT22;14851;51.166;4.760;2022-12-18T04:47:40;-6.80;99.90
27384;DHT22;14851;51.166;4.760;2022-12-18T04:50:07;-6.90;99.90
27384;DHT22;14851;51.166;4.760;2022-12-18T04:52:33;-6.90;99.90
27384;DHT22;14851;51.166;4.760;2022-12-18T04:55:01;-6.90;99.90
27384;DHT22;14851;51.166;4.760;2022-12-18T04:57:27;-6.90;99.90
27384;DHT22;14851;51.166;4.760;2022-12-18T04:59:53;-6.90;99.90
27384;DHT22;14851;51.166;4.760;2022-12-18T05:02:19;-7.00;99.90
27384;DHT22;14851;51.166;4.760;2022-12-18T05:04:45;-7.00;99.90
27384;DHT22;14851;51.166;4.760;2022-12-18T05:07:11;-7.00;99.90
27384;DHT22;14851;51.166;4.760;2022-12-18T05:09:37;-6.90;99.90
27384;DHT22;14851;51.166;4.760;2022-12-18T05:12:04;-6.90;99.90
27384;DHT22;14851;51.166;4.760;2022-12-18T05:14:30;-6.90;99.90
27384;DHT22;14851;51.166;4.760;2022-12-18T05:16:56;-6.90;99.90
27384;DHT22;14851;51.166;4.760;2022-12-18T05:19:22;-6.90;99.90
27384;DHT22;14851;51.166;4.760;2022-12-18T05:21:48;-6.90;99.90
27384;DHT22;14851;51.166;4.760;2022-12-18T05:24:14;-6.90;99.90
27384;DHT22;14851;51.166;4.760;2022-12-18T05:26:40;-6.90;99.90
27384;DHT22;14851;51.166;4.760;2022-12-18T05:29:07;-7.00;99.90
27384;DHT22;14851;51.166;4.760;2022-12-18T05:31:33;-7.00;99.90
27384;DHT22;14851;51.166;4.760;2022-12-18T05:34:00;-7.00;99.90
27384;DHT22;14851;51.166;4.760;2022-12-18T05:36:26;-7.00;99.90
27384;DHT22;14851;51.166;4.760;2022-12-18T05:38:55;-7.10;99.90
27384;DHT22;14851;51.166;4.760;2022-12-18T05:41:21;-7.00;99.90
27384;DHT22;14851;51.166;4.760;2022-12-18T05:43:47;-7.00;99.90
27384;DHT22;14851;51.166;4.760;2022-12-18T05:46:15;-7.10;99.90
27384;DHT22;14851;51.166;4.760;2022-12-18T05:48:42;-7.00;99.90
27384;DHT22;14851;51.166;4.760;2022-12-18T05:51:11;-7.10;99.90
27384;DHT22;14851;51.166;4.760;2022-12-18T05:53:38;-7.10;99.90
27384;DHT22;14851;51.166;4.760;2022-12-18T05:56:06;-7.10;99.90
27384;DHT22;14851;51.166;4.760;2022-12-18T05:58:33;-7.10;99.90
27384;DHT22;14851;51.166;4.760;2022-12-18T06:01:10;-7.10;99.90
27384;DHT22;14851;51.166;4.760;2022-12-18T06:03:36;-7.10;99.90
27384;DHT22;14851;51.166;4.760;2022-12-18T06:06:02;-7.10;99.90
27384;DHT22;14851;51.166;4.760;2022-12-18T06:08:28;-7.10;99.90
27384;DHT22;14851;51.166;4.760;2022-12-18T06:10:55;-7.20;99.90
27384;DHT22;14851;51.166;4.760;2022-12-18T06:13:21;-7.20;99.90
27384;DHT22;14851;51.166;4.760;2022-12-18T06:15:48;-7.20;99.90
27384;DHT22;14851;51.166;4.760;2022-12-18T06:18:15;-7.20;99.90
27384;DHT22;14851;51.166;4.760;2022-12-18T06:20:41;-7.20;99.90
27384;DHT22;14851;51.166;4.760;2022-12-18T06:23:07;-7.20;99.90
27384;DHT22;14851;51.166;4.760;2022-12-18T06:25:38;-7.20;99.90
27384;DHT22;14851;51.166;4.760;2022-12-18T06:28:04;-7.20;99.90
27384;DHT22;14851;51.166;4.760;2022-12-18T06:30:31;-7.20;99.90
27384;DHT22;14851;51.166;4.760;2022-12-18T06:33:00;-7.30;99.90
27384;DHT22;14851;51.166;4.760;2022-12-18T06:35:26;-7.30;99.90
27384;DHT22;14851;51.166;4.760;2022-12-18T06:37:53;-7.30;99.90
27384;DHT22;14851;51.166;4.760;2022-12-18T06:40:19;-7.30;99.90
27384;DHT22;14851;51.166;4.760;2022-12-18T06:42:47;-7.20;99.90
27384;DHT22;14851;51.166;4.760;2022-12-18T06:45:15;-7.20;99.90
27384;DHT22;14851;51.166;4.760;2022-12-18T06:47:41;-7.20;99.90
27384;DHT22;14851;51.166;4.760;2022-12-18T06:50:08;-7.20;99.90
27384;DHT22;14851;51.166;4.760;2022-12-18T06:52:34;-7.20;99.90
27384;DHT22;14851;51.166;4.760;2022-12-18T06:55:02;-7.20;99.90
27384;DHT22;14851;51.166;4.760;2022-12-18T06:57:29;-7.20;99.90
27384;DHT22;14851;51.166;4.760;2022-12-18T06:59:55;-7.20;99.90
27384;DHT22;14851;51.166;4.760;2022-12-18T07:02:22;-7.20;99.90
27384;DHT22;14851;51.166;4.760;2022-12-18T07:04:49;-7.20;99.90
27384;DHT22;14851;51.166;4.760;2022-12-18T07:07:18;-7.20;99.90
27384;DHT22;14851;51.166;4.760;2022-12-18T07:09:45;-7.20;99.90
27384;DHT22;14851;51.166;4.760;2022-12-18T07:12:11;-7.20;99.90
27384;DHT22;14851;51.166;4.760;2022-12-18T07:14:37;-7.20;99.90
27384;DHT22;14851;51.166;4.760;2022-12-18T07:17:04;-7.10;99.90
27384;DHT22;14851;51.166;4.760;2022-12-18T07:19:31;-7.20;99.90
27384;DHT22;14851;51.166;4.760;2022-12-18T07:21:58;-7.20;99.90
27384;DHT22;14851;51.166;4.760;2022-12-18T07:24:24;-7.30;99.90
27384;DHT22;14851;51.166;4.760;2022-12-18T07:26:50;-7.30;99.90
27384;DHT22;14851;51.166;4.760;2022-12-18T07:29:16;-7.30;99.90
27384;DHT22;14851;51.166;4.760;2022-12-18T07:31:43;-7.40;99.90
27384;DHT22;14851;51.166;4.760;2022-12-18T07:34:13;-7.40;99.90
27384;DHT22;14851;51.166;4.760;2022-12-18T07:36:39;-7.30;99.90
27384;DHT22;14851;51.166;4.760;2022-12-18T07:39:05;-7.20;99.90
27384;DHT22;14851;51.166;4.760;2022-12-18T07:41:32;-7.20;99.90
27384;DHT22;14851;51.166;4.760;2022-12-18T07:44:10;-7.00;99.90
27384;DHT22;14851;51.166;4.760;2022-12-18T07:46:37;-6.90;99.90
27384;DHT22;14851;51.166;4.760;2022-12-18T07:49:04;-6.90;99.90
27384;DHT22;14851;51.166;4.760;2022-12-18T07:51:30;-6.90;99.90
27384;DHT22;14851;51.166;4.760;2022-12-18T07:53:57;-6.90;99.90
27384;DHT22;14851;51.166;4.760;2022-12-18T07:56:26;-6.90;99.90
27384;DHT22;14851;51.166;4.760;2022-12-18T07:58:56;-6.80;99.90
27384;DHT22;14851;51.166;4.760;2022-12-18T08:01:23;-6.90;99.90
27384;DHT22;14851;51.166;4.760;2022-12-18T08:03:49;-6.90;99.90
27384;DHT22;14851;51.166;4.760;2022-12-18T08:06:15;-6.90;99.90
27384;DHT22;14851;51.166;4.760;2022-12-18T08:08:46;-7.10;99.90
27384;DHT22;14851;51.166;4.760;2022-12-18T08:11:13;-7.20;99.90
27384;DHT22;14851;51.166;4.760;2022-12-18T08:13:39;-7.30;99.90
27384;DHT22;14851;51.166;4.760;2022-12-18T08:16:07;-7.40;99.90
27384;DHT22;14851;51.166;4.760;2022-12-18T08:18:36;-7.30;99.90
27384;DHT22;14851;51.166;4.760;2022-12-18T08:21:13;-7.30;99.90
27384;DHT22;14851;51.166;4.760;2022-12-18T08:23:41;-7.20;99.90
27384;DHT22;14851;51.166;4.760;2022-12-18T08:26:08;-7.00;99.90
27384;DHT22;14851;51.166;4.760;2022-12-18T08:28:35;-6.80;99.90
27384;DHT22;14851;51.166;4.760;2022-12-18T08:31:01;-6.70;99.90
27384;DHT22;14851;51.166;4.760;2022-12-18T08:33:30;-6.70;99.90
27384;DHT22;14851;51.166;4.760;2022-12-18T08:36:04;-6.70;99.90
27384;DHT22;14851;51.166;4.760;2022-12-18T08:38:31;-6.60;99.90
27384;DHT22;14851;51.166;4.760;2022-12-18T08:41:03;-6.60;99.90
27384;DHT22;14851;51.166;4.760;2022-12-18T08:43:30;-6.60;99.90
27384;DHT22;14851;51.166;4.760;2022-12-18T08:46:15;-6.60;99.90
27384;DHT22;14851;51.166;4.760;2022-12-18T08:48:41;-6.70;99.90
27384;DHT22;14851;51.166;4.760;2022-12-18T08:51:08;-6.60;99.90
27384;DHT22;14851;51.166;4.760;2022-12-18T08:53:38;-6.70;99.90
27384;DHT22;14851;51.166;4.760;2022-12-18T09:08:26;-6.70;99.90
27384;DHT22;14851;51.166;4.760;2022-12-18T09:10:57;-6.20;99.90
27384;DHT22;14851;51.166;4.760;2022-12-18T09:13:23;-6.20;99.90
27384;DHT22;14851;51.166;4.760;2022-12-18T09:15:54;-6.20;99.90
27384;DHT22;14851;51.166;4.760;2022-12-18T09:18:22;-6.20;99.90
27384;DHT22;14851;51.166;4.760;2022-12-18T09:20:52;-6.20;99.90
27384;DHT22;14851;51.166;4.760;2022-12-18T09:23:23;-6.20;99.90
27384;DHT22;14851;51.166;4.760;2022-12-18T09:25:49;-6.10;99.90
27384;DHT22;14851;51.166;4.760;2022-12-18T09:28:18;-6.10;99.90
27384;DHT22;14851;51.166;4.760;2022-12-18T09:30:48;-6.10;99.90
27384;DHT22;14851;51.166;4.760;2022-12-18T09:33:15;-6.00;99.90
27384;DHT22;14851;51.166;4.760;2022-12-18T09:35:43;-6.00;99.90
27384;DHT22;14851;51.166;4.760;2022-12-18T09:38:15;-5.80;99.90
27384;DHT22;14851;51.166;4.760;2022-12-18T09:43:19;-5.50;99.90
27384;DHT22;14851;51.166;4.760;2022-12-18T09:45:49;-5.50;99.90
27384;DHT22;14851;51.166;4.760;2022-12-18T09:48:32;-5.50;99.90
27384;DHT22;14851;51.166;4.760;2022-12-18T09:51:18;-5.40;99.90
27384;DHT22;14851;51.166;4.760;2022-12-18T09:53:52;-5.40;99.90
27384;DHT22;14851;51.166;4.760;2022-12-18T09:56:22;-5.30;99.90
27384;DHT22;14851;51.166;4.760;2022-12-18T09:58:58;-5.10;99.90
27384;DHT22;14851;51.166;4.760;2022-12-18T10:01:29;-5.00;99.90
27384;DHT22;14851;51.166;4.760;2022-12-18T10:03:56;-5.10;99.90
27384;DHT22;14851;51.166;4.760;2022-12-18T10:22:50;-4.70;99.90
27384;DHT22;14851;51.166;4.760;2022-12-18T10:25:23;-4.70;99.90
27384;DHT22;14851;51.166;4.760;2022-12-18T10:27:57;-4.70;99.90
27384;DHT22;14851;51.166;4.760;2022-12-18T10:30:25;-4.80;99.90
27384;DHT22;14851;51.166;4.760;2022-12-18T10:32:52;-4.80;99.90
27384;DHT22;14851;51.166;4.760;2022-12-18T10:35:25;-4.80;99.90
27384;DHT22;14851;51.166;4.760;2022-12-18T10:41:00;-4.70;99.90
27384;DHT22;14851;51.166;4.760;2022-12-18T10:43:39;-4.50;99.90
27384;DHT22;14851;51.166;4.760;2022-12-18T10:51:21;-4.40;99.90
27384;DHT22;14851;51.166;4.760;2022-12-18T10:53:56;-4.30;99.90
27384;DHT22;14851;51.166;4.760;2022-12-18T10:56:26;-4.30;99.90
27384;DHT22;14851;51.166;4.760;2022-12-18T11:01:27;-4.10;99.90
27384;DHT22;14851;51.166;4.760;2022-12-18T11:06:22;-4.00;99.90
27384;DHT22;14851;51.166;4.760;2022-12-18T11:09:18;-4.00;99.90
27384;DHT22;14851;51.166;4.760;2022-12-18T11:11:53;-4.00;99.90
27384;DHT22;14851;51.166;4.760;2022-12-18T11:14:41;-4.10;99.90
27384;DHT22;14851;51.166;4.760;2022-12-18T11:17:19;-4.10;99.90
27384;DHT22;14851;51.166;4.760;2022-12-18T11:20:01;-4.10;99.90
27384;DHT22;14851;51.166;4.760;2022-12-18T11:22:34;-4.00;99.90
27384;DHT22;14851;51.166;4.760;2022-12-18T11:25:16;-3.80;99.90
27384;DHT22;14851;51.166;4.760;2022-12-18T11:27:55;-3.70;99.90
27384;DHT22;14851;51.166;4.760;2022-12-18T11:30:26;-3.70;99.90
27384;DHT22;14851;51.166;4.760;2022-12-18T11:33:09;-3.70;99.90
27384;DHT22;14851;51.166;4.760;2022-12-18T11:35:42;-3.60;99.90
27384;DHT22;14851;51.166;4.760;2022-12-18T11:38:29;-3.50;99.90
27384;DHT22;14851;51.166;4.760;2022-12-18T11:41:02;-3.60;99.90
27384;DHT22;14851;51.166;4.760;2022-12-18T11:46:37;-3.50;99.90
27384;DHT22;14851;51.166;4.760;2022-12-18T11:49:28;-3.50;99.90
27384;DHT22;14851;51.166;4.760;2022-12-18T11:52:24;-3.50;99.90
27384;DHT22;14851;51.166;4.760;2022-12-18T11:54:53;-3.40;99.90
27384;DHT22;14851;51.166;4.760;2022-12-18T11:57:31;-3.50;99.90
27384;DHT22;14851;51.166;4.760;2022-12-18T12:00:18;-3.50;99.90
27384;DHT22;14851;51.166;4.760;2022-12-18T12:16:24;-2.90;99.90
27384;DHT22;14851;51.166;4.760;2022-12-18T12:19:15;-3.00;99.90
27384;DHT22;14851;51.166;4.760;2022-12-18T12:32:54;-3.10;99.90
27384;DHT22;14851;51.166;4.760;2022-12-18T12:38:12;-2.90;99.90
27384;DHT22;14851;51.166;4.760;2022-12-18T12:40:46;-2.80;99.90
27384;DHT22;14851;51.166;4.760;2022-12-18T12:45:57;-2.70;99.90
27384;DHT22;14851;51.166;4.760;2022-12-18T12:48:51;-2.70;99.90
27384;DHT22;14851;51.166;4.760;2022-12-18T12:51:36;-2.60;99.90
27384;DHT22;14851;51.166;4.760;2022-12-18T12:54:06;-2.60;99.90
27384;DHT22;14851;51.166;4.760;2022-12-18T12:56:58;-2.60;99.90
27384;DHT22;14851;51.166;4.760;2022-12-18T13:02:42;-2.60;99.90
27384;DHT22;14851;51.166;4.760;2022-12-18T13:07:45;-2.70;99.90
27384;DHT22;14851;51.166;4.760;2022-12-18T13:13:09;-2.50;99.90
27384;DHT22;14851;51.166;4.760;2022-12-18T13:20:45;-2.30;99.90
27384;DHT22;14851;51.166;4.760;2022-12-18T13:28:52;-2.20;99.90
27384;DHT22;14851;51.166;4.760;2022-12-18T13:34:29;-2.30;99.90
27384;DHT22;14851;51.166;4.760;2022-12-18T13:39:59;-2.30;99.90
27384;DHT22;14851;51.166;4.760;2022-12-18T13:45:39;-2.20;99.90
27384;DHT22;14851;51.166;4.760;2022-12-18T13:48:21;-2.10;99.90
27384;DHT22;14851;51.166;4.760;2022-12-18T13:50:57;-2.00;99.90
27384;DHT22;14851;51.166;4.760;2022-12-18T13:53:28;-2.10;99.90
27384;DHT22;14851;51.166;4.760;2022-12-18T13:55:55;-2.00;99.90
27384;DHT22;14851;51.166;4.760;2022-12-18T13:58:21;-2.00;99.90
27384;DHT22;14851;51.166;4.760;2022-12-18T14:00:48;-2.00;99.90
27384;DHT22;14851;51.166;4.760;2022-12-18T14:03:25;-2.00;99.90
27384;DHT22;14851;51.166;4.760;2022-12-18T14:05:58;-2.00;99.90
27384;DHT22;14851;51.166;4.760;2022-12-18T14:08:36;-2.10;99.90
27384;DHT22;14851;51.166;4.760;2022-12-18T14:11:06;-2.20;99.90
27384;DHT22;14851;51.166;4.760;2022-12-18T14:13:36;-2.10;99.90
27384;DHT22;14851;51.166;4.760;2022-12-18T14:16:04;-2.00;99.90
27384;DHT22;14851;51.166;4.760;2022-12-18T14:21:27;-1.80;99.90
27384;DHT22;14851;51.166;4.760;2022-12-18T14:24:20;-1.80;99.90
27384;DHT22;14851;51.166;4.760;2022-12-18T14:26:49;-1.80;99.90
27384;DHT22;14851;51.166;4.760;2022-12-18T14:29:28;-1.80;99.90
27384;DHT22;14851;51.166;4.760;2022-12-18T14:32:24;-1.80;99.90
27384;DHT22;14851;51.166;4.760;2022-12-18T14:34:52;-1.90;99.90
27384;DHT22;14851;51.166;4.760;2022-12-18T14:37:26;-2.00;99.90
27384;DHT22;14851;51.166;4.760;2022-12-18T14:39:57;-2.00;99.90
27384;DHT22;14851;51.166;4.760;2022-12-18T14:42:26;-2.10;99.90
27384;DHT22;14851;51.166;4.760;2022-12-18T14:45:45;-2.00;99.90
27384;DHT22;14851;51.166;4.760;2022-12-18T14:53:43;-1.70;99.90
27384;DHT22;14851;51.166;4.760;2022-12-18T14:56:22;-1.70;99.90
27384;DHT22;14851;51.166;4.760;2022-12-18T14:59:00;-1.70;99.90
27384;DHT22;14851;51.166;4.760;2022-12-18T15:01:35;-1.60;99.90
27384;DHT22;14851;51.166;4.760;2022-12-18T15:04:19;-1.70;99.90
27384;DHT22;14851;51.166;4.760;2022-12-18T15:06:48;-1.80;99.90
27384;DHT22;14851;51.166;4.760;2022-12-18T15:09:25;-1.80;99.90
27384;DHT22;14851;51.166;4.760;2022-12-18T15:12:00;-1.80;99.90
27384;DHT22;14851;51.166;4.760;2022-12-18T15:14:38;-1.80;99.90
27384;DHT22;14851;51.166;4.760;2022-12-18T15:17:20;-1.70;99.90
27384;DHT22;14851;51.166;4.760;2022-12-18T15:19:50;-1.60;99.90
27384;DHT22;14851;51.166;4.760;2022-12-18T15:22:27;-1.60;99.90
27384;DHT22;14851;51.166;4.760;2022-12-18T15:24:57;-1.60;99.90
27384;DHT22;14851;51.166;4.760;2022-12-18T15:30:22;-1.60;99.90
27384;DHT22;14851;51.166;4.760;2022-12-18T15:32:49;-1.50;99.90
27384;DHT22;14851;51.166;4.760;2022-12-18T15:35:22;-1.60;99.90
27384;DHT22;14851;51.166;4.760;2022-12-18T15:37:50;-1.60;99.90
27384;DHT22;14851;51.166;4.760;2022-12-18T15:40:22;-1.70;99.90
27384;DHT22;14851;51.166;4.760;2022-12-18T15:42:50;-1.70;99.90
27384;DHT22;14851;51.166;4.760;2022-12-18T15:45:35;-1.70;99.90
27384;DHT22;14851;51.166;4.760;2022-12-18T15:48:18;-1.60;99.90
27384;DHT22;14851;51.166;4.760;2022-12-18T15:50:49;-1.50;99.90
27384;DHT22;14851;51.166;4.760;2022-12-18T15:53:16;-1.40;99.90
27384;DHT22;14851;51.166;4.760;2022-12-18T15:55:43;-1.50;99.90
27384;DHT22;14851;51.166;4.760;2022-12-18T15:58:27;-1.40;99.90
27384;DHT22;14851;51.166;4.760;2022-12-18T16:00:55;-1.40;99.90
27384;DHT22;14851;51.166;4.760;2022-12-18T16:03:22;-1.40;99.90
27384;DHT22;14851;51.166;4.760;2022-12-18T16:05:51;-1.40;99.90
27384;DHT22;14851;51.166;4.760;2022-12-18T16:08:18;-1.40;99.90
27384;DHT22;14851;51.166;4.760;2022-12-18T16:10:43;-1.40;99.90
27384;DHT22;14851;51.166;4.760;2022-12-18T16:13:15;-1.50;99.90
27384;DHT22;14851;51.166;4.760;2022-12-18T16:15:44;-1.50;99.90
27384;DHT22;14851;51.166;4.760;2022-12-18T16:18:10;-1.50;99.90
27384;DHT22;14851;51.166;4.760;2022-12-18T16:20:40;-1.40;99.90
27384;DHT22;14851;51.166;4.760;2022-12-18T16:23:07;-1.30;99.90
27384;DHT22;14851;51.166;4.760;2022-12-18T16:25:35;-1.20;99.90
27384;DHT22;14851;51.166;4.760;2022-12-18T16:28:01;-1.20;99.90
27384;DHT22;14851;51.166;4.760;2022-12-18T16:30:28;-1.20;99.90
27384;DHT22;14851;51.166;4.760;2022-12-18T16:32:57;-1.10;99.90
27384;DHT22;14851;51.166;4.760;2022-12-18T16:35:24;-1.20;99.90
27384;DHT22;14851;51.166;4.760;2022-12-18T16:37:53;-1.20;99.90
27384;DHT22;14851;51.166;4.760;2022-12-18T16:40:20;-1.20;99.90
27384;DHT22;14851;51.166;4.760;2022-12-18T16:42:47;-1.30;99.90
27384;DHT22;14851;51.166;4.760;2022-12-18T16:45:16;-1.30;99.90
27384;DHT22;14851;51.166;4.760;2022-12-18T16:47:42;-1.30;99.90
27384;DHT22;14851;51.166;4.760;2022-12-18T16:50:09;-1.40;99.90
27384;DHT22;14851;51.166;4.760;2022-12-18T16:52:36;-1.30;99.90
27384;DHT22;14851;51.166;4.760;2022-12-18T16:55:06;-1.20;99.90
27384;DHT22;14851;51.166;4.760;2022-12-18T16:57:32;-1.20;99.90
27384;DHT22;14851;51.166;4.760;2022-12-18T16:59:59;-1.10;99.90
27384;DHT22;14851;51.166;4.760;2022-12-18T17:02:26;-1.00;99.90
27384;DHT22;14851;51.166;4.760;2022-12-18T17:04:56;-1.10;99.90
27384;DHT22;14851;51.166;4.760;2022-12-18T17:07:23;-1.10;99.90
27384;DHT22;14851;51.166;4.760;2022-12-18T17:09:50;-1.10;99.90
27384;DHT22;14851;51.166;4.760;2022-12-18T17:12:19;-1.10;99.90
27384;DHT22;14851;51.166;4.760;2022-12-18T17:14:45;-1.10;99.90
27384;DHT22;14851;51.166;4.760;2022-12-18T17:17:11;-1.10;99.90
27384;DHT22;14851;51.166;4.760;2022-12-18T17:19:38;-1.10;99.90
27384;DHT22;14851;51.166;4.760;2022-12-18T17:22:04;-1.20;99.90
27384;DHT22;14851;51.166;4.760;2022-12-18T17:24:33;-1.20;99.90
27384;DHT22;14851;51.166;4.760;2022-12-18T17:27:00;-1.20;99.90
27384;DHT22;14851;51.166;4.760;2022-12-18T17:29:31;-1.20;99.90
27384;DHT22;14851;51.166;4.760;2022-12-18T17:31:57;-1.10;99.90
27384;DHT22;14851;51.166;4.760;2022-12-18T17:34:25;-1.00;99.90
27384;DHT22;14851;51.166;4.760;2022-12-18T17:36:51;-0.90;99.90
27384;DHT22;14851;51.166;4.760;2022-12-18T17:39:19;-1.00;99.90
27384;DHT22;14851;51.166;4.760;2022-12-18T17:41:45;-0.90;99.90
27384;DHT22;14851;51.166;4.760;2022-12-18T17:44:12;-0.90;99.90
27384;DHT22;14851;51.166;4.760;2022-12-18T17:46:40;-0.90;99.90
27384;DHT22;14851;51.166;4.760;2022-12-18T17:49:07;-0.90;99.90
27384;DHT22;14851;51.166;4.760;2022-12-18T17:51:33;-0.90;99.90
27384;DHT22;14851;51.166;4.760;2022-12-18T17:53:59;-0.90;99.90
27384;DHT22;14851;51.166;4.760;2022-12-18T17:56:27;-1.00;99.90
27384;DHT22;14851;51.166;4.760;2022-12-18T17:58:54;-1.00;99.90
27384;DHT22;14851;51.166;4.760;2022-12-18T18:01:24;-1.00;99.90
27384;DHT22;14851;51.166;4.760;2022-12-18T18:03:51;-1.00;99.90
27384;DHT22;14851;51.166;4.760;2022-12-18T18:06:19;-1.00;99.90
27384;DHT22;14851;51.166;4.760;2022-12-18T18:08:45;-1.00;99.90
27384;DHT22;14851;51.166;4.760;2022-12-18T18:11:18;-1.00;99.90
27384;DHT22;14851;51.166;4.760;2022-12-18T18:14:10;-0.80;99.90
27384;DHT22;14851;51.166;4.760;2022-12-18T18:16:40;-0.70;99.90